createdAt,value
2022-12-23T00:00:45.821Z,9.73
2022-12-23T00:03:12.959Z,9.90
2022-12-23T00:05:41.202Z,10.13
2022-12-23T00:08:08.461Z,10.47
2022-12-23T00:10:39.758Z,9.77
2022-12-23T00:13:26.467Z,9.90
2022-12-23T00:16:14.700Z,9.90
2022-12-23T00:18:42.985Z,9.77
2022-12-23T00:21:14.157Z,9.83
2022-12-23T00:23:45.267Z,10.00
2022-12-23T00:26:27.347Z,9.60
2022-12-23T00:28:57.953Z,10.40
2022-12-23T00:31:26.062Z,10.57
2022-12-23T00:33:54.389Z,10.40
2022-12-23T00:36:25.356Z,10.10
2022-12-23T00:39:11.258Z,11.33
2022-12-23T00:41:57.131Z,10.40
2022-12-23T00:44:24.908Z,11.87
2022-12-23T00:46:52.220Z,11.27
2022-12-23T00:49:38.954Z,10.27
2022-12-23T00:52:09.704Z,12.53
2022-12-23T00:54:37.069Z,12.07
2022-12-23T00:57:04.444Z,12.30
2022-12-23T00:59:31.488Z,11.67
2022-12-23T01:02:17.138Z,11.80
2022-12-23T01:05:02.686Z,12.20
2022-12-23T01:07:29.761Z,12.30
2022-12-23T01:09:56.804Z,11.83
2022-12-23T01:12:23.966Z,12.17
2022-12-23T01:14:51.019Z,11.73
2022-12-23T01:17:19.125Z,12.27
2022-12-23T01:19:46.187Z,12.00
2022-12-23T01:22:13.253Z,11.33
2022-12-23T01:24:40.326Z,12.40
2022-12-23T01:27:07.390Z,11.43
2022-12-23T01:29:34.444Z,12.03
2022-12-23T01:32:01.632Z,11.40
2022-12-23T01:34:36.041Z,11.70
2022-12-23T01:37:04.930Z,11.53
2022-12-23T01:39:32.046Z,11.60
2022-12-23T01:42:17.993Z,12.83
2022-12-23T01:44:50.802Z,11.65
2022-12-23T01:47:39.770Z,12.23
2022-12-23T01:50:22.550Z,12.00
2022-12-23T01:53:08.900Z,12.10
2022-12-23T01:56:04.549Z,11.57
2022-12-23T01:58:52.466Z,12.20
2022-12-23T02:01:38.525Z,11.60
2022-12-23T02:04:10.455Z,11.63
2022-12-23T02:07:01.820Z,12.40
2022-12-23T02:09:34.952Z,12.27
2022-12-23T02:12:21.470Z,12.57
2022-12-23T02:15:13.162Z,11.33
2022-12-23T02:18:37.337Z,11.27
2022-12-23T02:21:28.994Z,11.50
2022-12-23T02:24:32.245Z,11.63
2022-12-23T02:27:49.228Z,11.57
2022-12-23T02:30:43.532Z,11.00
2022-12-23T02:33:39.597Z,10.27
2022-12-23T02:36:32.487Z,10.37
2022-12-23T02:39:29.852Z,10.57
2022-12-23T02:42:07.612Z,10.33
2022-12-23T02:44:57.000Z,9.90
2022-12-23T02:47:30.696Z,10.90
2022-12-23T02:50:02.947Z,10.33
2022-12-23T02:52:34.425Z,10.27
2022-12-23T02:55:09.723Z,10.10
2022-12-23T02:57:41.428Z,10.63
2022-12-23T03:00:10.333Z,10.00
2022-12-23T03:02:40.115Z,10.20
2022-12-23T03:05:44.472Z,10.40
2022-12-23T03:08:18.749Z,11.27
2022-12-23T03:11:04.560Z,10.93
2022-12-23T03:14:20.630Z,9.93
2022-12-23T03:17:25.186Z,10.67
2022-12-23T03:20:19.491Z,10.23
2022-12-23T03:23:08.703Z,10.80
2022-12-23T03:25:50.352Z,10.93
2022-12-23T03:28:31.337Z,10.27
2022-12-23T03:31:01.456Z,9.73
2022-12-23T03:33:34.573Z,9.60
2022-12-23T03:36:18.989Z,10.40
2022-12-23T03:38:47.087Z,9.50
2022-12-23T03:41:22.807Z,9.20
2022-12-23T03:43:55.273Z,9.83
2022-12-23T03:47:18.335Z,10.13
2022-12-23T03:49:57.428Z,11.23
2022-12-23T03:52:42.693Z,10.67
2022-12-23T03:55:18.434Z,12.17
2022-12-23T03:57:58.633Z,11.57
2022-12-23T04:00:30.853Z,10.67
2022-12-23T04:03:09.044Z,10.43
2022-12-23T04:05:51.103Z,10.97
2022-12-23T04:08:33.538Z,10.73
2022-12-23T04:11:01.527Z,10.30
2022-12-23T04:13:29.450Z,10.43
2022-12-23T04:16:06.924Z,11.38
2022-12-23T04:18:34.305Z,9.65
2022-12-23T04:21:01.386Z,11.10
2022-12-23T04:23:28.489Z,10.55
2022-12-23T04:25:55.581Z,10.27
2022-12-23T04:28:22.646Z,10.00
2022-12-23T04:30:49.741Z,9.90
2022-12-23T04:33:16.839Z,10.67
2022-12-23T04:35:43.940Z,11.07
2022-12-23T04:38:11.595Z,10.83
2022-12-23T04:40:38.676Z,9.90
2022-12-23T04:43:05.697Z,10.30
2022-12-23T04:45:33.191Z,10.33
2022-12-23T04:48:00.228Z,10.63
2022-12-23T04:50:27.287Z,10.20
2022-12-23T04:52:54.365Z,10.00
2022-12-23T04:55:21.508Z,9.52
2022-12-23T04:57:48.589Z,9.03
2022-12-23T05:00:16.294Z,9.73
2022-12-23T05:02:43.583Z,10.03
2022-12-23T05:05:10.761Z,9.63
2022-12-23T05:07:37.904Z,19.98
2022-12-23T05:10:05.343Z,47.60
2022-12-23T05:12:32.615Z,94.07
2022-12-23T05:14:59.715Z,72.43
2022-12-23T05:17:26.878Z,94.47
2022-12-23T05:19:53.951Z,73.90
2022-12-23T05:22:21.004Z,33.93
2022-12-23T05:24:48.034Z,16.33
2022-12-23T05:27:15.176Z,13.23
2022-12-23T05:29:42.324Z,17.40
2022-12-23T05:32:09.477Z,25.10
2022-12-23T05:34:36.671Z,17.85
2022-12-23T05:37:03.796Z,13.13
2022-12-23T05:39:30.914Z,10.80
2022-12-23T05:41:57.974Z,11.63
2022-12-23T05:44:25.027Z,11.23
2022-12-23T05:46:52.123Z,12.43
2022-12-23T05:49:19.432Z,13.40
2022-12-23T05:51:46.620Z,11.43
2022-12-23T05:54:13.900Z,11.73
2022-12-23T05:56:41.215Z,10.83
2022-12-23T05:59:09.121Z,13.50
2022-12-23T06:01:36.354Z,11.10
2022-12-23T06:04:03.783Z,10.63
2022-12-23T06:06:30.996Z,10.37
2022-12-23T06:09:00.069Z,11.23
2022-12-23T06:11:27.822Z,10.13
2022-12-23T06:13:54.960Z,10.97
2022-12-23T06:16:22.295Z,11.03
2022-12-23T06:18:49.415Z,10.77
2022-12-23T06:21:16.484Z,10.70
2022-12-23T06:23:43.577Z,11.23
2022-12-23T06:26:10.614Z,11.47
2022-12-23T06:28:37.668Z,13.53
2022-12-23T06:31:05.066Z,11.63
2022-12-23T06:33:32.111Z,11.00
2022-12-23T06:35:59.296Z,12.30
2022-12-23T06:38:26.406Z,12.23
2022-12-23T06:40:53.480Z,11.00
2022-12-23T06:43:20.647Z,10.27
2022-12-23T06:45:49.170Z,10.87
2022-12-23T06:48:17.093Z,10.87
2022-12-23T06:50:44.646Z,10.90
2022-12-23T06:53:11.702Z,11.77
2022-12-23T06:55:39.035Z,11.57
2022-12-23T06:58:06.598Z,10.50
2022-12-23T07:00:33.641Z,11.23
2022-12-23T07:03:00.928Z,10.70
2022-12-23T07:05:34.884Z,10.70
2022-12-23T07:08:04.039Z,11.87
2022-12-23T07:10:31.082Z,11.10
2022-12-23T07:12:58.104Z,11.40
2022-12-23T07:15:25.147Z,11.10
2022-12-23T07:17:52.229Z,11.47
2022-12-23T07:20:19.340Z,12.20
2022-12-23T07:22:46.435Z,12.77
2022-12-23T07:25:13.797Z,10.87
2022-12-23T07:27:40.924Z,12.20
2022-12-23T07:30:09.148Z,10.97
2022-12-23T07:32:36.349Z,11.57
2022-12-23T07:35:03.610Z,10.87
2022-12-23T07:37:30.706Z,12.07
2022-12-23T07:39:57.974Z,10.60
2022-12-23T07:42:44.429Z,11.53
2022-12-23T07:45:12.339Z,10.97
2022-12-23T07:47:39.554Z,11.23
2022-12-23T07:50:07.723Z,11.67
2022-12-23T07:52:34.829Z,12.03
2022-12-23T07:55:01.982Z,12.67
2022-12-23T07:57:29.481Z,11.43
2022-12-23T07:59:56.894Z,10.97
2022-12-23T08:02:25.343Z,12.00
2022-12-23T08:04:52.795Z,11.23
2022-12-23T08:07:20.020Z,12.13
2022-12-23T08:09:47.087Z,10.90
2022-12-23T08:12:14.184Z,12.30
2022-12-23T08:14:41.218Z,11.20
2022-12-23T08:17:08.666Z,11.57
2022-12-23T08:19:35.822Z,11.97
2022-12-23T08:22:03.192Z,12.37
2022-12-23T08:24:30.308Z,11.73
2022-12-23T08:26:58.360Z,11.13
2022-12-23T08:29:25.596Z,12.40
2022-12-23T08:31:54.174Z,11.90
2022-12-23T08:34:21.199Z,32.00
2022-12-23T08:36:48.462Z,11.97
2022-12-23T08:39:15.886Z,13.57
2022-12-23T08:41:47.239Z,13.37
2022-12-23T08:44:17.003Z,42.77
2022-12-23T08:46:44.552Z,35.50
2022-12-23T08:49:11.951Z,14.90
2022-12-23T08:51:39.490Z,15.47
2022-12-23T08:54:07.400Z,14.43
2022-12-23T08:56:39.191Z,14.20
2022-12-23T08:59:06.734Z,14.10
2022-12-23T09:01:35.062Z,65.03
2022-12-23T09:04:05.528Z,64.93
2022-12-23T09:06:37.128Z,64.63
2022-12-23T09:09:05.811Z,66.20
2022-12-23T09:11:33.764Z,68.43
2022-12-23T09:14:02.042Z,68.60
2022-12-23T09:16:29.844Z,62.73
2022-12-23T09:18:57.472Z,64.60
2022-12-23T09:21:25.253Z,63.37
2022-12-23T09:23:52.935Z,65.07
2022-12-23T09:26:27.449Z,64.43
2022-12-23T09:28:56.399Z,63.20
2022-12-23T09:31:26.720Z,65.40
2022-12-23T09:33:56.558Z,64.47
2022-12-23T09:36:24.148Z,64.03
2022-12-23T09:38:56.513Z,62.07
2022-12-23T09:41:32.866Z,60.93
2022-12-23T09:44:30.553Z,60.27
2022-12-23T09:47:03.560Z,60.53
2022-12-23T09:49:31.324Z,60.17
2022-12-23T09:52:04.095Z,61.43
2022-12-23T09:54:41.915Z,60.70
2022-12-23T09:57:24.970Z,61.53
2022-12-23T10:00:15.744Z,61.27
2022-12-23T10:03:04.149Z,62.90
2022-12-23T10:06:07.793Z,62.27
2022-12-23T10:08:44.354Z,61.93
2022-12-23T10:11:21.962Z,61.57
2022-12-23T10:13:53.339Z,61.37
2022-12-23T10:16:32.941Z,60.77
2022-12-23T10:19:08.553Z,61.83
2022-12-23T10:21:47.652Z,61.23
2022-12-23T10:24:32.527Z,62.73
2022-12-23T10:27:06.578Z,61.67
2022-12-23T10:29:34.368Z,63.00
2022-12-23T10:32:46.185Z,63.17
2022-12-23T10:35:45.734Z,62.03
2022-12-23T10:38:27.722Z,62.77
2022-12-23T10:41:19.932Z,62.17
2022-12-23T10:44:05.077Z,62.50
2022-12-23T10:46:53.656Z,61.53
2022-12-23T10:49:41.762Z,62.17
2022-12-23T10:52:32.367Z,62.10
2022-12-23T10:54:59.486Z,64.03
2022-12-23T10:57:27.100Z,64.83
2022-12-23T10:59:54.619Z,63.07
2022-12-23T11:02:55.847Z,62.30
2022-12-23T11:05:27.850Z,63.37
2022-12-23T11:07:55.851Z,62.93
2022-12-23T11:10:28.706Z,63.63
2022-12-23T11:12:56.247Z,64.20
2022-12-23T11:15:41.509Z,62.73
2022-12-23T11:18:14.621Z,62.70
2022-12-23T11:20:45.010Z,65.87
2022-12-23T11:23:28.743Z,65.10
2022-12-23T11:26:09.128Z,63.60
2022-12-23T11:28:40.609Z,63.70
2022-12-23T11:31:14.497Z,65.33
2022-12-23T11:33:54.816Z,65.10
2022-12-23T11:36:28.209Z,63.63
2022-12-23T11:39:32.930Z,63.37
2022-12-23T11:42:12.431Z,62.10
2022-12-23T11:44:44.181Z,61.80
2022-12-23T11:47:23.153Z,61.03
2022-12-23T11:50:03.124Z,63.77
2022-12-23T11:52:33.531Z,63.27
2022-12-23T11:55:03.569Z,64.50
2022-12-23T11:57:45.091Z,63.47
2022-12-23T12:00:25.868Z,63.57
2022-12-23T12:02:56.534Z,64.17
2022-12-23T12:05:35.009Z,64.00
2022-12-23T12:08:06.924Z,63.17
2022-12-23T12:10:37.433Z,63.53
2022-12-23T12:13:28.267Z,64.90
2022-12-23T12:16:07.529Z,62.97
2022-12-23T12:18:35.464Z,62.57
2022-12-23T12:21:11.519Z,62.07
2022-12-23T12:24:14.730Z,62.30
2022-12-23T12:26:44.377Z,65.17
2022-12-23T12:29:39.579Z,67.03
2022-12-23T12:32:33.609Z,68.43
2022-12-23T12:35:07.067Z,66.00
2022-12-23T12:37:57.385Z,64.17
2022-12-23T12:40:46.146Z,65.77
2022-12-23T12:43:32.612Z,65.97
2022-12-23T12:46:11.921Z,62.00
2022-12-23T12:49:00.114Z,63.23
2022-12-23T12:52:01.175Z,63.77
2022-12-23T12:54:42.134Z,63.10
2022-12-23T12:57:16.004Z,62.63
2022-12-23T12:59:44.253Z,63.33
2022-12-23T13:02:52.252Z,63.87
2022-12-23T13:06:04.913Z,63.63
2022-12-23T13:08:56.636Z,62.30
2022-12-23T13:11:45.531Z,61.30
2022-12-23T13:14:52.981Z,61.80
2022-12-23T13:17:29.329Z,62.07
2022-12-23T13:20:24.105Z,63.80
2022-12-23T13:23:10.332Z,63.87
2022-12-23T13:26:11.664Z,62.63
2022-12-23T13:28:51.328Z,61.63
2022-12-23T13:31:40.033Z,61.00
2022-12-23T13:34:18.952Z,61.93
2022-12-23T13:36:58.798Z,61.47
2022-12-23T13:40:17.814Z,60.67
2022-12-23T13:42:53.883Z,61.43
2022-12-23T13:45:26.583Z,61.17
2022-12-23T13:48:38.952Z,60.80
2022-12-23T13:51:32.480Z,62.17
2022-12-23T13:54:16.899Z,62.07
2022-12-23T13:57:08.406Z,61.17
2022-12-23T14:00:08.569Z,63.03
2022-12-23T14:02:42.920Z,60.53
2022-12-23T14:05:36.128Z,60.57
2022-12-23T14:08:35.228Z,61.80
2022-12-23T14:11:26.719Z,61.37
2022-12-23T14:14:04.890Z,61.63
2022-12-23T14:17:10.059Z,70.17
2022-12-23T14:19:58.608Z,65.67
2022-12-23T14:22:45.420Z,61.77
2022-12-23T14:25:49.009Z,61.40
2022-12-23T14:28:40.179Z,61.97
2022-12-23T14:31:35.160Z,61.83
2022-12-23T14:34:22.966Z,62.60
2022-12-23T14:37:16.452Z,60.93
2022-12-23T14:39:44.135Z,61.03
2022-12-23T14:42:16.693Z,72.40
2022-12-23T14:44:47.241Z,64.27
2022-12-23T14:47:40.641Z,61.80
2022-12-23T14:50:59.926Z,61.53
2022-12-23T14:53:29.927Z,61.40
2022-12-23T14:56:15.079Z,61.50
2022-12-23T14:59:23.234Z,61.67
2022-12-23T15:01:59.264Z,62.00
2022-12-23T15:04:34.989Z,60.43
2022-12-23T15:07:10.975Z,62.10
2022-12-23T15:10:00.718Z,62.17
2022-12-23T15:12:41.438Z,65.23
2022-12-23T15:15:17.592Z,64.97
2022-12-23T15:17:44.918Z,66.60
2022-12-23T15:20:20.848Z,64.10
2022-12-23T15:22:48.673Z,65.73
2022-12-23T15:25:33.102Z,62.93
2022-12-23T15:28:02.982Z,67.60
2022-12-23T15:30:38.502Z,66.43
2022-12-23T15:33:35.035Z,64.33
2022-12-23T15:35:56.400Z,65.67
2022-12-23T15:38:28.841Z,62.97
2022-12-23T15:41:06.887Z,67.20
2022-12-23T15:43:42.409Z,66.07
2022-12-23T15:46:25.049Z,68.40
2022-12-23T15:48:56.424Z,65.37
2022-12-23T15:52:06.434Z,63.20
2022-12-23T15:54:34.414Z,63.03
2022-12-23T15:57:04.175Z,61.53
2022-12-23T15:59:39.159Z,62.47
2022-12-23T16:03:01.010Z,67.93
2022-12-23T16:05:36.018Z,67.77
2022-12-23T16:08:08.854Z,63.90
2022-12-23T16:10:36.512Z,65.23
2022-12-23T16:13:03.982Z,70.93
2022-12-23T16:15:33.424Z,62.90
2022-12-23T16:18:19.431Z,68.40
2022-12-23T16:20:56.200Z,63.67
2022-12-23T16:23:24.313Z,61.53
2022-12-23T16:25:53.379Z,60.97
2022-12-23T16:28:29.294Z,61.40
2022-12-23T16:30:58.217Z,64.37
2022-12-23T16:33:36.378Z,64.30
2022-12-23T16:36:27.620Z,67.33
2022-12-23T16:39:06.614Z,65.13
2022-12-23T16:41:34.889Z,63.23
2022-12-23T16:44:02.721Z,60.47
2022-12-23T16:46:34.251Z,64.97
2022-12-23T16:49:05.124Z,69.90
2022-12-23T16:51:34.259Z,67.70
2022-12-23T16:54:02.188Z,65.87
2022-12-23T16:56:35.276Z,62.93
2022-12-23T16:59:02.881Z,63.37
2022-12-23T17:01:39.025Z,62.43
2022-12-23T17:04:07.101Z,62.03
2022-12-23T17:06:35.973Z,63.27
2022-12-23T17:09:05.083Z,61.67
2022-12-23T17:11:49.041Z,63.27
2022-12-23T17:14:22.874Z,64.80
2022-12-23T17:16:51.036Z,64.13
2022-12-23T17:19:27.879Z,63.93
2022-12-23T17:22:02.390Z,67.43
2022-12-23T17:24:29.787Z,66.30
2022-12-23T17:26:57.477Z,65.90
2022-12-23T17:29:25.133Z,64.03
2022-12-23T17:31:52.985Z,63.90
2022-12-23T17:34:24.634Z,63.63
2022-12-23T17:36:51.871Z,64.17
2022-12-23T17:39:21.411Z,63.93
2022-12-23T17:41:49.146Z,63.60
2022-12-23T17:44:18.375Z,62.93
2022-12-23T17:46:46.710Z,62.43
2022-12-23T17:49:13.821Z,61.70
2022-12-23T17:51:42.546Z,61.93
2022-12-23T17:54:26.136Z,63.20
2022-12-23T17:56:53.980Z,61.77
2022-12-23T17:59:21.970Z,63.53
2022-12-23T18:01:50.055Z,63.03
2022-12-23T18:04:17.356Z,62.20
2022-12-23T18:06:44.441Z,63.33
2022-12-23T18:09:11.512Z,63.30
2022-12-23T18:11:46.528Z,62.27
2022-12-23T18:14:26.790Z,64.70
2022-12-23T18:16:54.123Z,68.67
2022-12-23T18:19:21.854Z,68.20
2022-12-23T18:21:49.859Z,65.77
2022-12-23T18:24:17.617Z,64.03
2022-12-23T18:26:45.097Z,65.77
2022-12-23T18:29:12.675Z,67.13
2022-12-23T18:31:51.029Z,66.90
2022-12-23T18:34:19.775Z,67.23
2022-12-23T18:36:48.389Z,70.03
2022-12-23T18:39:16.235Z,71.80
2022-12-23T18:41:43.673Z,68.50
2022-12-23T18:44:19.909Z,65.87
2022-12-23T18:46:48.271Z,65.20
2022-12-23T18:49:15.904Z,65.23
2022-12-23T18:51:43.362Z,64.43
2022-12-23T18:54:19.702Z,62.77
2022-12-23T18:56:47.981Z,64.90
2022-12-23T18:59:29.249Z,63.83
2022-12-23T19:01:57.853Z,66.57
2022-12-23T19:04:26.236Z,65.17
2022-12-23T19:06:56.091Z,66.10
2022-12-23T19:09:24.731Z,64.53
2022-12-23T19:11:53.924Z,64.97
2022-12-23T19:14:21.802Z,66.40
2022-12-23T19:16:52.108Z,65.83
2022-12-23T19:19:21.034Z,67.43
2022-12-23T19:21:48.654Z,69.70
2022-12-23T19:24:16.134Z,66.53
2022-12-23T19:26:43.289Z,65.37
2022-12-23T19:29:10.755Z,67.50
2022-12-23T19:31:37.912Z,75.90
2022-12-23T19:34:08.234Z,91.17
2022-12-23T19:36:40.357Z,114.00
2022-12-23T19:39:08.752Z,100.70
2022-12-23T19:41:36.206Z,72.60
2022-12-23T19:44:04.065Z,66.80
2022-12-23T19:46:31.557Z,63.03
2022-12-23T19:48:58.714Z,63.30
2022-12-23T19:51:26.204Z,64.53
2022-12-23T19:53:53.746Z,63.67
2022-12-23T19:56:21.926Z,66.30
2022-12-23T19:58:49.976Z,65.43
2022-12-23T20:01:21.415Z,65.70
2022-12-23T20:03:49.951Z,65.53
2022-12-23T20:06:26.888Z,66.70
2022-12-23T20:09:00.062Z,65.73
2022-12-23T20:11:30.757Z,66.13
2022-12-23T20:13:58.954Z,68.10
2022-12-23T20:16:27.288Z,65.33
2022-12-23T20:18:55.237Z,65.20
2022-12-23T20:21:22.834Z,67.53
2022-12-23T20:23:51.003Z,66.87
2022-12-23T20:26:19.625Z,65.87
2022-12-23T20:28:47.210Z,66.70
2022-12-23T20:31:23.711Z,67.97
2022-12-23T20:33:52.184Z,66.57
2022-12-23T20:36:25.387Z,68.80
2022-12-23T20:38:53.594Z,73.63
2022-12-23T20:41:25.533Z,72.47
2022-12-23T20:44:31.517Z,71.57
2022-12-23T20:46:40.726Z,65.33
2022-12-23T20:49:08.214Z,66.07
2022-12-23T20:51:35.281Z,66.23
2022-12-23T20:54:02.707Z,67.57
2022-12-23T20:56:30.535Z,65.00
2022-12-23T20:58:59.398Z,67.27
2022-12-23T21:01:35.211Z,66.73
2022-12-23T21:04:18.092Z,67.47
2022-12-23T21:06:45.950Z,71.17
2022-12-23T21:09:14.974Z,65.87
2022-12-23T21:11:45.621Z,65.37
2022-12-23T21:14:14.770Z,65.40
2022-12-23T21:16:42.959Z,64.67
2022-12-23T21:19:19.670Z,67.60
2022-12-23T21:21:47.859Z,67.30
2022-12-23T21:24:15.764Z,66.77
2022-12-23T21:26:43.878Z,68.10
2022-12-23T21:29:11.752Z,67.43
2022-12-23T21:31:41.143Z,71.67
2022-12-23T21:34:09.119Z,66.93
2022-12-23T21:36:38.868Z,66.47
2022-12-23T21:39:07.578Z,68.47
2022-12-23T21:41:38.595Z,73.40
2022-12-23T21:44:06.473Z,74.87
2022-12-23T21:46:34.335Z,76.83
2022-12-23T21:49:01.978Z,71.43
2022-12-23T21:51:39.476Z,67.60
2022-12-23T21:54:10.136Z,66.37
2022-12-23T21:56:37.780Z,65.00
2022-12-23T21:59:11.157Z,64.47
2022-12-23T22:01:38.522Z,63.37
2022-12-23T22:04:05.996Z,62.90
2022-12-23T22:06:37.487Z,64.87
2022-12-23T22:09:07.180Z,67.27
2022-12-23T22:11:36.674Z,66.80
2022-12-23T22:14:07.542Z,67.97
2022-12-23T22:16:36.643Z,79.47
2022-12-23T22:19:06.601Z,81.17
2022-12-23T22:21:35.071Z,70.80
2022-12-23T22:24:03.438Z,66.93
2022-12-23T22:26:32.777Z,69.67
2022-12-23T22:29:03.277Z,68.27
2022-12-23T22:31:47.794Z,65.03
2022-12-23T22:34:21.333Z,66.43
2022-12-23T22:36:49.272Z,69.13
2022-12-23T22:39:21.642Z,75.33
2022-12-23T22:41:51.056Z,77.43
2022-12-23T22:44:18.565Z,83.57
2022-12-23T22:46:45.866Z,75.80
2022-12-23T22:49:14.646Z,74.57
2022-12-23T22:51:43.325Z,76.40
2022-12-23T22:54:11.283Z,73.00
2022-12-23T22:56:38.876Z,75.93
2022-12-23T22:59:06.525Z,72.63
2022-12-23T23:01:36.404Z,72.40
2022-12-23T23:04:04.911Z,72.40
2022-12-23T23:06:39.540Z,70.80
2022-12-23T23:09:11.164Z,71.50
2022-12-23T23:11:38.842Z,73.33
2022-12-23T23:14:06.529Z,72.03
2022-12-23T23:16:34.225Z,72.90
2022-12-23T23:19:04.014Z,79.83
2022-12-23T23:21:31.507Z,84.00
2022-12-23T23:23:58.679Z,77.17
2022-12-23T23:26:27.548Z,74.27
2022-12-23T23:28:55.976Z,72.10
2022-12-23T23:34:11.443Z,84.50
2022-12-23T23:36:39.202Z,82.27
2022-12-23T23:39:06.721Z,83.30
2022-12-23T23:41:34.328Z,90.43
2022-12-23T23:44:01.780Z,89.63
2022-12-23T23:46:30.666Z,84.77
2022-12-23T23:48:58.353Z,80.60
2022-12-23T23:51:25.673Z,81.10
2022-12-23T23:53:53.137Z,73.70
2022-12-23T23:56:25.459Z,78.30
2022-12-23T23:58:53.281Z,76.37
